createdAt,value
2022-12-01T00:01:07.124Z,102521.25
2022-12-01T00:03:42.240Z,102516.06
2022-12-01T00:06:20.544Z,102514.28
2022-12-01T00:09:19.757Z,102537.84
2022-12-01T00:11:57.018Z,102510.47
2022-12-01T00:14:37.581Z,102510.47
2022-12-01T00:17:34.911Z,102518.78
2022-12-01T00:22:56.783Z,102504.34
2022-12-01T00:25:27.922Z,102508.00
2022-12-01T00:28:34.878Z,102533.69
2022-12-01T00:31:08.824Z,102532.75
2022-12-01T00:33:37.259Z,102520.41
2022-12-01T00:36:08.424Z,102518.78
2022-12-01T00:38:45.124Z,102508.59
2022-12-01T00:41:14.646Z,102507.06
2022-12-01T00:43:44.162Z,102508.41
2022-12-01T00:46:28.893Z,102520.09
2022-12-01T00:48:59.548Z,102514.81
2022-12-01T00:51:30.429Z,102514.00
2022-12-01T00:54:06.125Z,102507.53
2022-12-01T00:56:39.430Z,102520.84
2022-12-01T00:59:07.084Z,102507.78
2022-12-01T01:01:40.051Z,102511.19
2022-12-01T01:04:07.936Z,102508.59
2022-12-01T01:06:35.058Z,102512.31
2022-12-01T01:09:15.438Z,102531.75
2022-12-01T01:11:46.533Z,102519.47
2022-12-01T01:14:14.557Z,102516.06
2022-12-01T01:16:49.829Z,102518.84
2022-12-01T01:19:20.178Z,102518.16
2022-12-01T01:21:47.383Z,102526.44
2022-12-01T01:24:14.491Z,102526.00
2022-12-01T01:26:46.739Z,102551.94
2022-12-01T01:29:16.431Z,102541.16
2022-12-01T01:31:50.464Z,102543.84
2022-12-01T01:34:17.454Z,102540.34
2022-12-01T01:36:45.180Z,102548.41
2022-12-01T01:39:12.554Z,102533.91
2022-12-01T01:41:45.238Z,102546.63
2022-12-01T01:44:50.814Z,102563.56
2022-12-01T01:47:40.977Z,102541.66
2022-12-01T01:50:17.514Z,102544.91
2022-12-01T01:52:49.001Z,102545.00
2022-12-01T01:55:18.093Z,102555.56
2022-12-01T01:57:47.874Z,102548.00
2022-12-01T02:00:23.768Z,102545.31
2022-12-01T02:02:53.734Z,102529.63
2022-12-01T02:05:32.400Z,102557.13
2022-12-01T02:08:12.889Z,102538.34
2022-12-01T02:10:43.534Z,102551.00
2022-12-01T02:13:37.117Z,102542.19
2022-12-01T02:16:34.619Z,102560.13
2022-12-01T02:19:35.972Z,102557.31
2022-12-01T02:22:48.194Z,102549.13
2022-12-01T02:25:45.343Z,102571.25
2022-12-01T02:28:30.447Z,102560.22
2022-12-01T02:31:06.203Z,102537.13
2022-12-01T02:33:47.326Z,102533.91
2022-12-01T02:36:46.277Z,102548.72
2022-12-01T02:39:30.536Z,102541.91
2022-12-01T02:42:39.665Z,102554.19
2022-12-01T02:45:14.146Z,102549.88
2022-12-01T02:47:48.347Z,102550.69
2022-12-01T02:50:19.131Z,102540.75
2022-12-01T02:52:48.518Z,102533.38
2022-12-01T02:55:21.710Z,102534.41
2022-12-01T03:00:35.274Z,102534.94
2022-12-01T03:03:55.726Z,102545.94
2022-12-01T03:06:50.041Z,102556.50
2022-12-01T03:09:37.988Z,102527.03
2022-12-01T03:12:41.442Z,102559.19
2022-12-01T03:15:20.636Z,102561.09
2022-12-01T03:17:57.826Z,102532.03
2022-12-01T03:20:49.933Z,102546.63
2022-12-01T03:23:27.800Z,102545.31
2022-12-01T03:26:02.005Z,102538.66
2022-12-01T03:28:47.847Z,102528.00
2022-12-01T03:31:30.340Z,102539.72
2022-12-01T03:34:18.229Z,102535.66
2022-12-01T03:36:56.347Z,102530.06
2022-12-01T03:39:38.618Z,102535.97
2022-12-01T03:42:26.520Z,102558.69
2022-12-01T03:45:08.032Z,102560.22
2022-12-01T03:47:37.895Z,102568.97
2022-12-01T03:50:13.526Z,102557.13
2022-12-01T03:53:01.668Z,102563.03
2022-12-01T03:55:41.406Z,102531.84
2022-12-01T03:58:35.344Z,102546.56
2022-12-01T04:01:07.765Z,102554.22
2022-12-01T04:03:48.433Z,102547.19
2022-12-01T04:06:27.142Z,102562.41
2022-12-01T04:09:00.744Z,102572.78
2022-12-01T04:11:55.536Z,102542.50
2022-12-01T04:14:30.465Z,102541.59
2022-12-01T04:17:02.596Z,102545.81
2022-12-01T04:19:31.211Z,102533.38
2022-12-01T04:22:03.040Z,102562.31
2022-12-01T04:24:30.328Z,102537.63
2022-12-01T04:27:04.705Z,102539.41
2022-12-01T04:29:34.864Z,102542.09
2022-12-01T04:32:18.914Z,102559.63
2022-12-01T04:34:48.516Z,102535.97
2022-12-01T04:37:26.523Z,102535.13
2022-12-01T04:39:54.800Z,102540.94
2022-12-01T04:42:27.355Z,102548.63
2022-12-01T04:44:54.435Z,102566.38
2022-12-01T04:47:24.744Z,102547.16
2022-12-01T04:49:53.482Z,102549.03
2022-12-01T04:52:20.801Z,102543.84
2022-12-01T04:54:48.001Z,102534.94
2022-12-01T04:57:15.069Z,102535.97
2022-12-01T04:59:42.098Z,102546.34
2022-12-01T05:02:11.843Z,102529.53
2022-12-01T05:04:46.325Z,102528.50
2022-12-01T05:07:27.447Z,102528.41
2022-12-01T05:10:08.935Z,102553.81
2022-12-01T05:12:46.658Z,102539.50
2022-12-01T05:15:19.439Z,102543.34
2022-12-01T05:18:10.605Z,102556.19
2022-12-01T05:21:08.969Z,102534.94
2022-12-01T05:23:46.786Z,102539.28
2022-12-01T05:26:22.813Z,102540.22
2022-12-01T05:28:54.504Z,102555.28
2022-12-01T05:31:29.676Z,102548.94
2022-12-01T05:33:57.335Z,102542.41
2022-12-01T05:36:29.198Z,102534.50
2022-12-01T05:39:07.199Z,102565.00
2022-12-01T05:41:43.482Z,102566.78
2022-12-01T05:44:16.275Z,102562.31
2022-12-01T05:46:46.363Z,102568.25
2022-12-01T05:49:17.660Z,102543.84
2022-12-01T05:52:02.338Z,102556.63
2022-12-01T05:54:57.963Z,102551.34
2022-12-01T05:57:32.714Z,102552.97
2022-12-01T06:00:01.253Z,102553.06
2022-12-01T06:02:47.670Z,102553.50
2022-12-01T06:05:22.267Z,102558.91
2022-12-01T06:07:55.285Z,102539.28
2022-12-01T06:10:32.948Z,102568.53
2022-12-01T06:13:02.767Z,102554.44
2022-12-01T06:15:37.251Z,102564.38
2022-12-01T06:18:13.247Z,102554.34
2022-12-01T06:20:51.362Z,102549.16
2022-12-01T06:26:13.533Z,102553.50
2022-12-01T06:29:15.384Z,102560.22
2022-12-01T06:31:46.382Z,102576.31
2022-12-01T06:34:24.209Z,102555.91
2022-12-01T06:36:55.992Z,102569.16
2022-12-01T06:39:32.696Z,102590.31
2022-12-01T06:42:00.847Z,102583.28
2022-12-01T06:44:28.998Z,102566.06
2022-12-01T06:46:57.656Z,102571.47
2022-12-01T06:49:27.684Z,102578.31
2022-12-01T06:51:58.585Z,102589.69
2022-12-01T06:54:39.015Z,102579.84
2022-12-01T06:57:16.756Z,102586.69
2022-12-01T07:00:15.320Z,102587.00
2022-12-01T07:03:06.713Z,102578.50
2022-12-01T07:06:05.010Z,102606.63
2022-12-01T07:08:43.235Z,102606.72
2022-12-01T07:11:38.999Z,102610.78
2022-12-01T07:14:40.083Z,102606.31
2022-12-01T07:17:10.507Z,102588.56
2022-12-01T07:19:45.348Z,102588.47
2022-12-01T07:22:22.625Z,102584.94
2022-12-01T07:24:56.409Z,102605.78
2022-12-01T07:27:24.096Z,102601.53
2022-12-01T07:30:05.468Z,102585.88
2022-12-01T07:32:34.089Z,102584.41
2022-12-01T07:35:18.307Z,102606.63
2022-12-01T07:38:21.933Z,102625.19
2022-12-01T07:41:19.566Z,102609.91
2022-12-01T07:44:21.567Z,102616.38
2022-12-01T07:46:57.592Z,102609.00
2022-12-01T07:49:45.331Z,102618.34
2022-12-01T07:52:24.496Z,102607.97
2022-12-01T07:55:21.396Z,102612.72
2022-12-01T07:57:54.145Z,102620.09
2022-12-01T08:00:22.705Z,102609.00
2022-12-01T08:02:51.289Z,102610.88
2022-12-01T08:05:25.079Z,102637.75
2022-12-01T08:08:01.277Z,102618.13
2022-12-01T08:10:34.818Z,102621.03
2022-12-01T08:13:02.067Z,102623.81
2022-12-01T08:15:33.978Z,102651.34
2022-12-01T08:18:04.461Z,102646.03
2022-12-01T08:20:40.514Z,102648.63
2022-12-01T08:23:20.463Z,102629.25
2022-12-01T08:25:47.918Z,102627.78
2022-12-01T08:28:32.478Z,102615.84
2022-12-01T08:31:26.676Z,102628.69
2022-12-01T08:34:13.086Z,102648.47
2022-12-01T08:36:42.874Z,102622.63
2022-12-01T08:39:15.271Z,102644.00
2022-12-01T08:42:11.206Z,102648.22
2022-12-01T08:44:50.387Z,102640.22
2022-12-01T08:47:46.586Z,102668.03
2022-12-01T08:50:14.529Z,102656.09
2022-12-01T08:52:47.514Z,102651.41
2022-12-01T08:55:17.983Z,102639.44
2022-12-01T08:57:48.613Z,102645.59
2022-12-01T09:00:25.773Z,102662.56
2022-12-01T09:03:27.262Z,102655.22
2022-12-01T09:06:20.940Z,102646.09
2022-12-01T09:08:51.740Z,102669.78
2022-12-01T09:11:25.130Z,102656.00
2022-12-01T09:13:56.861Z,102666.72
2022-12-01T09:16:51.733Z,102662.72
2022-12-01T09:19:25.777Z,102655.50
2022-12-01T09:22:08.942Z,102656.94
2022-12-01T09:25:02.547Z,102664.13
2022-12-01T09:28:01.517Z,102662.13
2022-12-01T09:30:46.067Z,102691.59
2022-12-01T09:33:26.108Z,102659.22
2022-12-01T09:38:49.607Z,102657.44
2022-12-01T09:41:55.459Z,102685.72
2022-12-01T09:44:35.180Z,102694.94
2022-12-01T09:47:49.155Z,102684.16
2022-12-01T09:50:26.948Z,102685.78
2022-12-01T09:53:24.226Z,102678.44
2022-12-01T09:56:08.661Z,102660.97
2022-12-01T09:58:47.681Z,102656.31
2022-12-01T10:01:48.124Z,102652.59
2022-12-01T10:04:51.283Z,102649.66
2022-12-01T10:07:32.535Z,102659.44
2022-12-01T10:10:15.229Z,102646.84
2022-12-01T10:13:18.929Z,102647.38
2022-12-01T10:16:21.208Z,102660.56
2022-12-01T10:19:18.017Z,102649.84
2022-12-01T10:22:17.802Z,102664.63
2022-12-01T10:25:08.688Z,102653.38
2022-12-01T10:27:50.736Z,102629.66
2022-12-01T10:30:23.589Z,102642.41
2022-12-01T10:33:17.059Z,102624.53
2022-12-01T10:35:46.796Z,102652.31
2022-12-01T10:38:32.545Z,102629.19
2022-12-01T10:41:29.123Z,102644.63
2022-12-01T10:44:09.230Z,102627.22
2022-12-01T10:47:02.962Z,102623.47
2022-12-01T10:49:48.991Z,102625.16
2022-12-01T10:52:58.830Z,102630.84
2022-12-01T10:56:15.750Z,102645.59
2022-12-01T10:59:20.934Z,102648.44
2022-12-01T11:02:04.821Z,102641.28
2022-12-01T11:23:49.740Z,102635.94
2022-12-01T11:26:25.439Z,102633.03
2022-12-01T11:28:55.982Z,102630.94
2022-12-01T11:31:36.947Z,102626.78
2022-12-01T11:34:04.462Z,102629.16
2022-12-01T11:37:00.427Z,102620.28
2022-12-01T11:39:33.893Z,102613.97
2022-12-01T11:42:05.069Z,102614.88
2022-12-01T11:47:24.785Z,102618.31
2022-12-01T11:50:00.656Z,102604.63
2022-12-01T11:52:44.956Z,102602.06
2022-12-01T11:55:11.626Z,102607.44
2022-12-01T11:57:45.171Z,102598.44
2022-12-01T12:00:25.129Z,102594.88
2022-12-01T12:03:08.961Z,102595.28
2022-12-01T12:05:50.889Z,102587.44
2022-12-01T12:08:40.468Z,102585.03
2022-12-01T12:11:22.475Z,102583.69
2022-12-01T12:14:12.708Z,102591.56
2022-12-01T12:16:40.132Z,102589.47
2022-12-01T12:19:33.982Z,102586.47
2022-12-01T12:22:18.539Z,102574.94
2022-12-01T12:25:07.544Z,102562.97
2022-12-01T12:27:47.498Z,102578.22
2022-12-01T12:30:37.097Z,102574.81
2022-12-01T12:33:22.293Z,102578.03
2022-12-01T12:36:20.348Z,102577.25
2022-12-01T12:38:56.107Z,102575.00
2022-12-01T12:41:35.414Z,102572.03
2022-12-01T12:44:32.381Z,102572.66
2022-12-01T12:47:24.078Z,102566.47
2022-12-01T12:50:01.600Z,102561.47
2022-12-01T12:52:33.981Z,102559.84
2022-12-01T12:55:11.295Z,102564.13
2022-12-01T12:57:46.894Z,102562.19
2022-12-01T13:00:15.982Z,102560.78
2022-12-01T13:02:58.079Z,102555.22
2022-12-01T13:05:43.593Z,102561.03
2022-12-01T13:08:36.953Z,102562.94
2022-12-01T13:11:20.785Z,102547.09
2022-12-01T13:14:07.923Z,102545.47
2022-12-01T13:16:39.966Z,102548.78
2022-12-01T13:19:16.671Z,102550.31
2022-12-01T13:21:46.497Z,102536.38
2022-12-01T13:24:23.423Z,102544.78
2022-12-01T13:26:56.515Z,102541.56
2022-12-01T13:29:25.005Z,102539.91
2022-12-01T13:31:54.072Z,102535.44
2022-12-01T13:34:34.710Z,102531.50
2022-12-01T13:37:01.679Z,102532.56
2022-12-01T13:39:35.907Z,102535.41
2022-12-01T13:42:17.205Z,102530.19
2022-12-01T13:44:59.767Z,102524.19
2022-12-01T13:47:48.902Z,102522.75
2022-12-01T13:50:39.002Z,102528.63
2022-12-01T13:53:17.808Z,102523.22
2022-12-01T13:56:02.679Z,102526.31
2022-12-01T13:58:32.751Z,102526.75
2022-12-01T14:01:21.800Z,102528.41
2022-12-01T14:04:21.808Z,102526.41
2022-12-01T14:06:50.234Z,102528.41
2022-12-01T14:09:40.983Z,102529.53
2022-12-01T14:12:34.546Z,102530.97
2022-12-01T14:15:05.309Z,102531.44
2022-12-01T14:17:35.735Z,102529.78
2022-12-01T14:20:08.361Z,102534.72
2022-12-01T14:22:43.803Z,102533.16
2022-12-01T14:25:19.558Z,102541.34
2022-12-01T14:27:48.923Z,102532.69
2022-12-01T14:30:46.943Z,102536.13
2022-12-01T14:33:45.021Z,102528.28
2022-12-01T14:36:24.369Z,102537.75
2022-12-01T14:38:57.428Z,102539.19
2022-12-01T14:41:30.765Z,102538.94
2022-12-01T14:44:14.179Z,102526.69
2022-12-01T14:46:49.174Z,102527.59
2022-12-01T14:49:26.083Z,102525.00
2022-12-01T14:52:04.576Z,102525.94
2022-12-01T14:54:43.164Z,102518.56
2022-12-01T14:57:16.703Z,102517.53
2022-12-01T14:59:44.767Z,102519.88
2022-12-01T15:02:12.615Z,102517.63
2022-12-01T15:05:09.840Z,102515.84
2022-12-01T15:07:42.178Z,102518.13
2022-12-01T15:10:17.482Z,102521.41
2022-12-01T15:12:44.412Z,102519.84
2022-12-01T15:15:24.297Z,102521.59
2022-12-01T15:17:53.037Z,102533.53
2022-12-01T15:20:41.215Z,102532.00
2022-12-01T15:23:15.476Z,102527.75
2022-12-01T15:25:44.147Z,102535.56
2022-12-01T15:28:17.120Z,102543.03
2022-12-01T15:30:47.103Z,102542.00
2022-12-01T15:33:37.155Z,102544.59
2022-12-01T15:36:04.702Z,102537.38
2022-12-01T15:38:34.914Z,102544.94
2022-12-01T15:44:03.108Z,102546.91
2022-12-01T15:46:32.660Z,102535.81
2022-12-01T15:49:30.258Z,102545.16
2022-12-01T15:52:07.363Z,102535.59
2022-12-01T15:54:36.203Z,102534.28
2022-12-01T15:57:03.618Z,102533.53
2022-12-01T15:59:32.454Z,102530.44
2022-12-01T16:01:59.559Z,102523.69
2022-12-01T16:04:35.579Z,102536.78
2022-12-01T16:07:06.920Z,102537.72
2022-12-01T16:09:39.709Z,102537.13
2022-12-01T16:12:09.308Z,102541.25
2022-12-01T16:14:36.763Z,102531.31
2022-12-01T16:17:05.397Z,102540.13
2022-12-01T16:19:33.863Z,102543.00
2022-12-01T16:22:05.299Z,102542.25
2022-12-01T16:24:35.849Z,102545.19
2022-12-01T16:27:07.918Z,102547.56
2022-12-01T16:30:05.225Z,102536.16
2022-12-01T16:32:40.934Z,102546.00
2022-12-01T16:35:24.600Z,102542.31
2022-12-01T16:37:51.271Z,102554.31
2022-12-01T16:40:18.425Z,102553.09
2022-12-01T16:42:45.482Z,102562.09
2022-12-01T16:45:14.860Z,102557.84
2022-12-01T16:47:42.472Z,102560.97
2022-12-01T16:50:21.387Z,102558.09
2022-12-01T16:52:48.307Z,102548.72
2022-12-01T16:55:47.732Z,102559.34
2022-12-01T16:58:14.482Z,102552.41
2022-12-01T17:00:41.629Z,102557.91
2022-12-01T17:03:15.967Z,102549.41
2022-12-01T17:05:42.996Z,102554.16
2022-12-01T17:08:09.898Z,102548.47
2022-12-01T17:10:41.012Z,102550.84
2022-12-01T17:13:07.772Z,102542.13
2022-12-01T17:15:34.694Z,102547.72
2022-12-01T17:18:04.208Z,102541.41
2022-12-01T17:20:31.056Z,102539.66
2022-12-01T17:22:59.006Z,102538.19
2022-12-01T17:25:26.309Z,102545.47
2022-12-01T17:27:52.995Z,102529.56
2022-12-01T17:30:19.697Z,102530.94
2022-12-01T17:32:46.640Z,102534.88
2022-12-01T17:35:16.923Z,102537.56
2022-12-01T17:37:44.382Z,102526.38
2022-12-01T17:40:14.670Z,102535.50
2022-12-01T17:42:45.577Z,102542.53
2022-12-01T17:45:17.691Z,102541.84
2022-12-01T17:47:44.767Z,102540.81
2022-12-01T17:50:12.036Z,102544.44
2022-12-01T17:52:38.860Z,102535.41
2022-12-01T17:55:06.294Z,102542.06
2022-12-01T17:57:34.419Z,102544.66
2022-12-01T18:00:03.898Z,102532.81
2022-12-01T18:02:35.351Z,102543.28
2022-12-01T18:05:02.012Z,102536.44
2022-12-01T18:07:29.255Z,102536.44
2022-12-01T18:09:55.837Z,102537.91
2022-12-01T18:12:22.678Z,102536.34
2022-12-01T18:14:50.644Z,102535.84
2022-12-01T18:17:17.762Z,102531.59
2022-12-01T18:19:44.637Z,102527.84
2022-12-01T18:22:11.198Z,102527.22
2022-12-01T18:24:38.130Z,102540.53
2022-12-01T18:27:05.153Z,102532.97
2022-12-01T18:29:32.406Z,102528.91
2022-12-01T18:31:59.853Z,102540.41
2022-12-01T18:34:29.571Z,102534.28
2022-12-01T18:36:56.613Z,102535.13
2022-12-01T18:39:23.553Z,102536.38
2022-12-01T18:41:50.322Z,102528.59
2022-12-01T18:44:17.683Z,102541.44
2022-12-01T18:46:44.559Z,102533.16
2022-12-01T18:49:11.830Z,102537.41
2022-12-01T18:51:38.838Z,102546.13
2022-12-01T18:54:07.743Z,102544.25
2022-12-01T18:56:35.266Z,102534.19
2022-12-01T18:59:05.204Z,102538.84
2022-12-01T19:01:40.218Z,102537.06
2022-12-01T19:04:08.682Z,102539.59
2022-12-01T19:06:37.218Z,102528.91
2022-12-01T19:09:05.719Z,102529.84
2022-12-01T19:11:33.399Z,102530.03
2022-12-01T19:14:00.009Z,102526.84
2022-12-01T19:16:27.009Z,102536.72
2022-12-01T19:18:53.867Z,102543.22
2022-12-01T19:21:21.873Z,102531.72
2022-12-01T19:23:50.114Z,102543.44
2022-12-01T19:26:22.111Z,102536.81
2022-12-01T19:29:00.206Z,102528.09
2022-12-01T19:31:37.573Z,102532.75
2022-12-01T19:34:08.171Z,102529.22
2022-12-01T19:36:43.853Z,102536.81
2022-12-01T19:39:13.598Z,102522.94
2022-12-01T19:41:41.606Z,102508.06
2022-12-01T19:44:10.307Z,102525.28
2022-12-01T19:46:38.210Z,102537.94
2022-12-01T19:49:06.738Z,102510.88
2022-12-01T19:51:37.236Z,102520.00
2022-12-01T19:54:10.012Z,102533.28
2022-12-01T19:56:57.793Z,102532.84
2022-12-01T19:59:43.792Z,102527.03
2022-12-01T20:02:13.971Z,102525.59
2022-12-01T20:04:41.068Z,102525.59
2022-12-01T20:07:08.302Z,102525.81
2022-12-01T20:09:35.151Z,102519.69
2022-12-01T20:12:02.438Z,102528.53
2022-12-01T20:14:29.887Z,102519.69
2022-12-01T20:16:58.498Z,102534.75
2022-12-01T20:19:28.723Z,102518.97
2022-12-01T20:21:55.643Z,102505.47
2022-12-01T20:24:25.142Z,102533.91
2022-12-01T20:26:57.113Z,102528.72
2022-12-01T20:29:29.798Z,102522.28
2022-12-01T20:31:59.593Z,102519.81
2022-12-01T20:34:32.738Z,102528.94
2022-12-01T20:37:02.258Z,102528.59
2022-12-01T20:39:44.396Z,102536.47
2022-12-01T20:42:11.686Z,102499.06
2022-12-01T20:44:42.080Z,102533.06
2022-12-01T20:47:10.100Z,102535.97
2022-12-01T20:49:37.107Z,102520.63
2022-12-01T20:52:04.720Z,102533.91
2022-12-01T20:54:31.886Z,102521.66
2022-12-01T20:56:59.327Z,102505.47
2022-12-01T20:59:26.636Z,102490.38
2022-12-01T21:01:53.671Z,102522.72
2022-12-01T21:04:20.971Z,102518.16
2022-12-01T21:06:50.096Z,102517.94
2022-12-01T21:09:18.302Z,102499.78
2022-12-01T21:12:09.023Z,102509.63
2022-12-01T21:14:56.650Z,102478.97
2022-12-01T21:18:11.356Z,102477.41
2022-12-01T21:20:40.843Z,102513.16
2022-12-01T21:23:14.647Z,102487.03
2022-12-01T21:25:41.915Z,102509.41
2022-12-01T21:28:21.029Z,102503.63
2022-12-01T21:30:55.530Z,102494.47
2022-12-01T21:33:31.187Z,102503.81
2022-12-01T21:36:00.843Z,102497.94
2022-12-01T21:38:28.511Z,102506.22
2022-12-01T21:40:57.924Z,102502.19
2022-12-01T21:43:28.013Z,102501.13
2022-12-01T21:46:06.914Z,102494.28
2022-12-01T21:48:37.137Z,102476.88
2022-12-01T21:51:24.938Z,102473.56
2022-12-01T21:53:55.818Z,102480.63
2022-12-01T21:56:30.634Z,102479.75
2022-12-01T21:59:02.822Z,102486.84
2022-12-01T22:01:32.331Z,102473.88
2022-12-01T22:04:02.726Z,102466.28
2022-12-01T22:06:38.119Z,102471.88
2022-12-01T22:09:33.351Z,102471.88
2022-12-01T22:12:20.668Z,102452.88
2022-12-01T22:14:48.471Z,102473.78
2022-12-01T22:17:20.510Z,102459.84
2022-12-01T22:20:01.084Z,102457.34
2022-12-01T22:22:32.866Z,102473.78
2022-12-01T22:25:21.415Z,102469.09
2022-12-01T22:27:48.601Z,102460.69
2022-12-01T22:30:24.175Z,102464.44
2022-12-01T22:33:10.724Z,102469.63
2022-12-01T22:35:45.290Z,102450.28
2022-12-01T22:38:17.200Z,102460.81
2022-12-01T22:41:04.325Z,102443.16
2022-12-01T22:44:03.146Z,102465.25
2022-12-01T22:46:31.720Z,102465.25
2022-12-01T22:49:02.473Z,102459.72
2022-12-01T22:51:36.074Z,102465.25
2022-12-01T22:54:16.851Z,102464.66
2022-12-01T22:56:46.361Z,102453.66
2022-12-01T22:59:19.600Z,102456.50
2022-12-01T23:01:50.141Z,102441.06
2022-12-01T23:04:33.224Z,102442.44
2022-12-01T23:07:09.249Z,102440.78
2022-12-01T23:09:41.003Z,102438.47
2022-12-01T23:12:10.714Z,102459.03
2022-12-01T23:14:43.215Z,102450.72
2022-12-01T23:17:35.784Z,102458.28
2022-12-01T23:20:26.462Z,102454.88
2022-12-01T23:22:56.036Z,102431.34
2022-12-01T23:25:25.933Z,102427.50
2022-12-01T23:27:55.444Z,102436.00
2022-12-01T23:30:22.787Z,102428.13
2022-12-01T23:33:09.570Z,102410.19
2022-12-01T23:36:08.507Z,102444.69
2022-12-01T23:38:39.279Z,102433.00
2022-12-01T23:41:14.043Z,102432.47
2022-12-01T23:43:44.269Z,102421.47
2022-12-01T23:46:24.081Z,102414.97
2022-12-01T23:49:04.353Z,102420.56
2022-12-01T23:51:35.059Z,102395.91
2022-12-01T23:54:14.185Z,102406.34
2022-12-01T23:56:41.816Z,102410.72
2022-12-01T23:59:14.033Z,102420.88
